Laukaa, Finland
Kieli:  Suomi
CurCond
Päivitetty10/05/2021 02:13 
 

Lähistön Lentoasemien Säätiloja:

 

EFJY - Jyvaskyla (mil/C,) Finland
Etäisyys Sääasemalta: PKo 21km
Päivitetty: 10/05/2021 01:50
Heikkoa sadetta, Kuurottaisia sateita, Puolipilvistä
Heikkoa sadetta, Kuurottaisia sateita, Puolipilvistä
 Tuulen suunta E
Tuuli: E 17 km/h
Lämpötila: 6°C
Tuulen purevuus: 3°C
Kastepiste: 1°C
Ilmankosteus: 71%
Ilmanpaine: 1014 hPa
Yhteenveto: Heikkoa sadetta, Kuurottaisia sateita
Pilvisyys: Puolipilvistä
Näkyvyys: 10 km
2021/05/09 22:50 EFJY 092250Z AUTO 18009KT 9999 -SHRA NSC 06/01 Q1014
EFHA - Halli (fin-Afb), Finland
Etäisyys Sääasemalta: Lo 56km
Päivitetty: 10/05/2021 01:50
Heikkoa sadetta, Pilvistä
Heikkoa sadetta, Pilvistä
 Tuulen suunta Ka
Tuuli: Ka 11 km/h
Lämpötila: 4°C
Tuulen purevuus: 1°C
Kastepiste: 3°C
Ilmankosteus: 93%
Ilmanpaine: 1013 hPa
Yhteenveto: Light Rain
Pilvisyys: Pilvistä
Näkyvyys: 10 km
Pilvisyystiedot: Pilvistä 549 m
2021/05/09 22:50 EFHA 092250Z AUTO 14006KT 9999 -RA OVC018 04/03 Q1013
EFMI - Mikkeli, Finland
Etäisyys Sääasemalta: IKa 105km
Päivitetty: 28/04/2021 15:50
NOT Current
Selkeätä
Selkeätä
 Tuulen suunta L
Tuuli: L 15 km/h
Lämpötila: 5°C
Tuulen purevuus: 2°C
Kastepiste: -7°C
Ilmankosteus: 42%
Ilmanpaine: 1011 hPa
Yhteenveto: Selkeätä
Näkyvyys: Enemmän Kuin 10 km
2021/04/28 12:50 EFMI 281250Z AUTO 27008KT 250V060 CAVOK 05/M07 Q1011
 
EFTP - Tampere/Pirkkala, Finland
Etäisyys Sääasemalta: Lo 135km
Päivitetty: 10/05/2021 01:50
Heikkoa sadetta, Pilvistä
Heikkoa sadetta, Pilvistä
 Tuulen suunta Ka
Tuuli: Ka 15 km/h
Lämpötila: 5°C
Tuulen purevuus: 2°C
Kastepiste: 4°C
Ilmankosteus: 93%
Ilmanpaine: 1012 hPa
Yhteenveto: Light Rain
Pilvisyys: Pilvistä
Näkyvyys: 10 km
Pilvisyystiedot: Joitain Pilviä 366 m
Pilvistä 1250 m
2021/05/09 22:50 EFTP 092250Z AUTO 13008KT 9999 -RA FEW012 OVC041 05/04 Q1012
EFKU - Kuopio (mil/Civ), Finland
Etäisyys Sääasemalta: Ko 146km
Päivitetty: 10/05/2021 01:50
Selkeätä
Selkeätä
 Tuulen suunta E
Tuuli: E 11 km/h
Lämpötila: 5°C
Tuulen purevuus: 2°C
Kastepiste: 2°C
Ilmankosteus: 81%
Ilmanpaine: 1014 hPa
Yhteenveto: Selkeätä
Näkyvyys: Enemmän Kuin 10 km
2021/05/09 22:50 EFKU 092250Z AUTO 18006KT CAVOK 05/02 Q1014
EFSI - Seinajoki-Ilmajo, Finland
Etäisyys Sääasemalta: LLu 149km
Päivitetty: 10/05/2021 01:50
Heikkoa sadetta, Pilvistä
Heikkoa sadetta, Pilvistä
 Tuulen suunta EKa
Tuuli: EKa 13 km/h
Lämpötila: 5°C
Tuulen purevuus: 2°C
Kastepiste: 3°C
Ilmankosteus: 87%
Ilmanpaine: 1011 hPa
Yhteenveto: Light Rain
Pilvisyys: Pilvistä
Näkyvyys: 10 km
Pilvisyystiedot: Joitain Pilviä 427 m
Puolipilvistä 671 m
Enimmäkseen pilvistä 884 m
Pilvistä 1036 m
2021/05/09 22:50 EFSI 092250Z AUTO 15007KT 110V180 9999 -RA FEW014 SCT022 BKN029 OVC034 05/03 Q1011